Aviation Digital Data Service (ADDS)

Output produced by METARs form (1342 UTC 21 August 2019)
found at http://www.aviationweather.gov/metar/data/
 
Forecast for: FOOL (LIBREVILLE/LEON , GA)
Text: TAF FOOL 211112Z 2112/2218 21008KT 9999 SCT011 BKN035
Forecast period: 1200 UTC 21 August 2019 to 1800 UTC 22 August 2019
Forecast type: FROM: standard forecast or significant change
Winds: from the SSW (210 degrees) at 9 MPH (8 knots; 4.1 m/s)
Visibility: 6 or more miles 10+ km)
Ceiling: 3500 feet AGL
Clouds: scattered clouds at 1100 feet AGL
broken clouds at 3500 feet AGL
Weather: no significant weather forecast for this period